WetterOnline ( https://www.wetteronline.de )

Wetter aktuell Bamberg

Aktuelles Wetter: Bamberg (243m)

6-stündlich | Neueste Meldungen
Ortszeit Temperatur Wetter
So, 14.04. 14:00 21.6° C leicht bewölkt
So, 14.04. 8:00 10.9° C leicht bewölkt
So, 14.04. 2:00 12.0° C wolkig
Sa, 13.04. 20:00 18.6° C wolkig
Sa, 13.04. 14:00 20.6° C wolkig
Sa, 13.04. 8:00 8.9° C bewölkt
Sa, 13.04. 2:00 7.3° C bedeckt
Fr, 12.04. 20:00 17.3° C wolkig
Ortszeit Temperatur Wetter
So, 14.04. 16:10 21.9° C bedeckt
So, 14.04. 16:00 22.0° C leicht bewölkt
So, 14.04. 15:50 22.0° C wolkig
So, 14.04. 15:40 21.9° C bedeckt
So, 14.04. 15:30 22.0° C wolkig
So, 14.04. 15:20 22.0° C wolkig
So, 14.04. 15:00 21.9° C wolkig
So, 14.04. 14:30 21.9° C wolkig
So, 14.04. 14:00 21.6° C leicht bewölkt
So, 14.04. 13:30 21.5° C wolkig
Ortszeit Relative Feuchte Sichtweite
So, 14.04. 14:00 43% >70 km
So, 14.04. 8:00 87% 30 km
So, 14.04. 2:00 86% 35 km
Sa, 13.04. 20:00 61% >70 km
Sa, 13.04. 14:00 55% 65 km
Sa, 13.04. 8:00 93% 22 km
Sa, 13.04. 2:00 93% 45 km
Fr, 12.04. 20:00 54% 40 km
Ortszeit Relative Feuchte Sichtweite
So, 14.04. 16:10 40% -
So, 14.04. 16:00 40% 55 km
So, 14.04. 15:50 40% -
So, 14.04. 15:40 38% -
So, 14.04. 15:30 40% 65 km
So, 14.04. 15:20 40% -
So, 14.04. 15:00 40% 60 km
So, 14.04. 14:30 42% 50 km
So, 14.04. 14:00 43% >70 km
So, 14.04. 13:30 44% 55 km
Ortszeit Niederschlagsmenge Niederschlagsart
So, 14.04. 14:00 0.0 l/m2 in 6 Std. -
So, 14.04. 8:00 0.0 l/m2 in 12 Std. -
So, 14.04. 2:00 0.0 l/m2 in 6 Std. -
Sa, 13.04. 20:00 0.0 l/m2 in 12 Std. -
Sa, 13.04. 14:00 0.0 l/m2 in 6 Std. -
Sa, 13.04. 8:00 0.0 l/m2 in 12 Std. -
Sa, 13.04. 2:00 0.0 l/m2 in 6 Std. -
Fr, 12.04. 20:00 0.0 l/m2 in 12 Std. -
Ortszeit Niederschlagsmenge Niederschlagsart
So, 14.04. 16:10 keine Meldung -
So, 14.04. 16:00 0.0 l/m2 in 1 Std. -
So, 14.04. 15:50 keine Meldung -
So, 14.04. 15:40 keine Meldung -
So, 14.04. 15:30 0.0 l/m2 in 30 Min -
So, 14.04. 15:20 keine Meldung -
So, 14.04. 15:00 0.0 l/m2 in 1 Std. -
So, 14.04. 14:30 0.0 l/m2 in 30 Min -
So, 14.04. 14:00 0.0 l/m2 in 1 Std. -
So, 14.04. 13:30 0.0 l/m2 in 30 Min -
Ortszeit Stärke Spitze Richtung
km/h Bft. km/h Grad Sektor
So, 14.04. 14:00 22 4 36 290° W
So, 14.04. 8:00 0 0 14 - -
So, 14.04. 2:00 11 2 14 160° S
Sa, 13.04. 20:00 6 1 26 170° S
Sa, 13.04. 14:00 7 2 22 230° SW
Sa, 13.04. 8:00 4 1 7 180° S
Sa, 13.04. 2:00 4 1 7 130° SO
Fr, 12.04. 20:00 4 1 25 250° W
Ortszeit Stärke Spitze Richtung
km/h Bft. km/h Grad Sektor
So, 14.04. 16:10 15 3 - 270° W
So, 14.04. 16:00 22 4 40 260° W
So, 14.04. 15:50 22 4 - 260° W
So, 14.04. 15:40 24 4 - 250° W
So, 14.04. 15:30 22 4 40 270° W
So, 14.04. 15:20 22 4 - 270° W
So, 14.04. 15:00 22 4 39 250° W
So, 14.04. 14:30 22 4 39 260° W
So, 14.04. 14:00 22 4 36 290° W
So, 14.04. 13:30 22 4 35 270° W
Ortszeit Untergrenze Bedeckung Gattung
total tief tief mittel hoch
So, 14.04. 14:00 7200 m 8/8 0/8 - - -
So, 14.04. 8:00 9000 m 6/8 0/8 - - -
So, 14.04. 2:00 9000 m 8/8 0/8 - - -
Sa, 13.04. 20:00 8400 m 8/8 0/8 - - -
Sa, 13.04. 14:00 1170 m 7/8 2/8 - - -
Sa, 13.04. 8:00 6600 m 8/8 7/8 - - -
Sa, 13.04. 2:00 6600 m 8/8 8/8 - - -
Fr, 12.04. 20:00 10500 m 7/8 0/8 - - -
Ortszeit Bedeckungsgrad in Achtel und Wolkenuntergrenze
So, 14.04. 16:10 8
So, 14.04. 16:00 1(1800m) 8(7800m)
So, 14.04. 15:50 1(1800m) 8(7800m)
So, 14.04. 15:40 8
So, 14.04. 15:30 1(1800m) 7(7500m)
So, 14.04. 15:20 1(1800m) 7(7500m)
So, 14.04. 15:00 2(1800m) 5(6900m) 6(7800m)
So, 14.04. 14:30 6(7500m) 8(8100m)
So, 14.04. 14:00 2(7200m) 7(8100m) 8(9000m)
So, 14.04. 13:30 8(8100m)
Ortszeit Luftdruck NN (hPa) Tendenz (hPa in 3 Std.)
So, 14.04. 14:00 1020 - 0,9
So, 14.04. 8:00 1022 + 0,4
So, 14.04. 2:00 1022 - 0,7
Sa, 13.04. 20:00 1023 - 1,7
Sa, 13.04. 14:00 1027 - 2,0
Sa, 13.04. 8:00 1030 0,0
Sa, 13.04. 2:00 1031 - 0,3
Fr, 12.04. 20:00 1029 - 0,8
Ortszeit Luftdruck NN (hPa) Tendenz (hPa in 3 Std.)
So, 14.04. 16:10 1018 keine Meldung
So, 14.04. 16:00 1018 - 1,6
So, 14.04. 15:50 1018 keine Meldung
So, 14.04. 15:40 1019 keine Meldung
So, 14.04. 15:30 1019 - 1,4
So, 14.04. 15:20 1019 keine Meldung
So, 14.04. 15:00 1019 - 1,4
So, 14.04. 14:30 1019 - 0,9
So, 14.04. 14:00 1020 - 0,9
So, 14.04. 13:30 1020 - 0,8
Ortszeit Schneehöhe (cm)
So, 14.04. 14:00 0
So, 14.04. 8:00 0
So, 14.04. 2:00 0
Sa, 13.04. 20:00 0
Sa, 13.04. 14:00 0
Sa, 13.04. 8:00 0
Sa, 13.04. 2:00 0
Fr, 12.04. 20:00 0
Ortszeit Schneehöhe (cm)
So, 14.04. 16:10 -
So, 14.04. 16:00 0
So, 14.04. 15:50 0
So, 14.04. 15:40 -
So, 14.04. 15:30 0
So, 14.04. 15:20 0
So, 14.04. 15:00 0
So, 14.04. 14:30 0
So, 14.04. 14:00 0
So, 14.04. 13:30 0
Link zu dieser Seite / Seite empfehlen

Das Wetter in ...